Time;durP1;ratioP1;P1;durP2;ratioP2;P2;SDS_P1;SDS_P2;PMS_P1;PMS_P2;Temp;Humidity;BMP_temperature;BMP_pressure;BME280_temperature;BME280_humidity;BME280_pressure;Samples;Min_cycle;Max_cycle;Signal;HPM_P1;HPM_P2
2022/01/14 00:01:59;;;;;;;;;;;-0.80;99.90;;;;;;5067361;28;19921;-71
2022/01/14 00:04:25;;;;;;;;;;;-0.80;99.90;;;;;;5067032;28;19921;-70
2022/01/14 00:06:52;;;;;;;;;;;-0.80;99.90;;;;;;5066620;28;19924;-71
2022/01/14 00:09:19;;;;;;;;;;;-0.80;99.90;;;;;;5066876;28;19927;-71
2022/01/14 00:11:49;;;;;;;;;;;-0.80;99.90;;;;;;5066879;28;20208;-71
2022/01/14 00:14:36;;;;;;;;;;;-0.80;99.90;;;;;;5066676;28;19921;-71
2022/01/14 00:17:04;;;;;;;;;;;-0.90;99.90;;;;;;5066649;28;20151;-71
2022/01/14 00:19:31;;;;;;;;;;;-0.90;99.90;;;;;;5066817;28;19920;-71
2022/01/14 00:21:59;;;;;;;;;;;-0.90;99.90;;;;;;5066889;28;19927;-71
2022/01/14 00:24:31;;;;;;;;;;;-0.90;99.90;;;;;;5066280;28;19962;-71
2022/01/14 00:32:36;;;;;;;;;;;-0.90;99.90;;;;;;5066613;28;19923;-71
2022/01/14 00:35:03;;;;;;;;;;;-1.00;99.90;;;;;;5066229;28;20034;-71
2022/01/14 00:37:29;;;;;;;;;;;-1.00;99.90;;;;;;5066338;28;20180;-71
2022/01/14 00:39:56;;;;;;;;;;;-1.00;99.90;;;;;;5066346;28;20147;-71
2022/01/14 00:42:23;;;;;;;;;;;-1.10;99.90;;;;;;5066545;28;19927;-71
2022/01/14 00:44:49;;;;;;;;;;;-1.10;99.90;;;;;;5065832;28;19920;-71
2022/01/14 00:47:16;;;;;;;;;;;-1.10;99.90;;;;;;5066307;28;19927;-71
2022/01/14 00:49:44;;;;;;;;;;;-1.20;99.90;;;;;;5065929;28;19927;-71
2022/01/14 00:52:10;;;;;;;;;;;-1.10;99.90;;;;;;5066340;28;19927;-71
2022/01/14 00:54:37;;;;;;;;;;;-1.20;99.90;;;;;;5065966;28;19921;-71
2022/01/14 00:57:26;;;;;;;;;;;-1.10;99.90;;;;;;5065874;28;19920;-71
2022/01/14 00:59:51;;;;;;;;;;;-1.20;99.90;;;;;;5065694;28;19966;-72
2022/01/14 01:02:27;;;;;;;;;;;-1.10;99.90;;;;;;5065163;28;19917;-71
2022/01/14 01:04:55;;;;;;;;;;;-1.10;99.90;;;;;;5065832;28;19921;-71
2022/01/14 01:07:22;;;;;;;;;;;-1.20;99.90;;;;;;5065601;28;19928;-71
2022/01/14 01:09:51;;;;;;;;;;;-1.20;99.90;;;;;;5065817;28;19925;-71
2022/01/14 01:12:30;;;;;;;;;;;-1.20;99.90;;;;;;5066018;28;19921;-71
2022/01/14 01:15:05;;;;;;;;;;;-1.20;99.90;;;;;;5065198;28;20101;-71
2022/01/14 01:17:32;;;;;;;;;;;-1.20;99.90;;;;;;5045873;28;19925;-71
2022/01/14 01:20:01;;;;;;;;;;;-1.20;99.90;;;;;;5045896;28;19921;-71
2022/01/14 01:22:27;;;;;;;;;;;-1.20;99.90;;;;;;5045940;28;19921;-71
2022/01/14 01:24:54;;;;;;;;;;;-1.20;99.90;;;;;;5053436;28;19921;-71
2022/01/14 01:27:21;;;;;;;;;;;-1.20;99.90;;;;;;5065460;28;19920;-71
2022/01/14 01:29:53;;;;;;;;;;;-1.20;99.90;;;;;;5065382;28;20177;-71
2022/01/14 01:32:20;;;;;;;;;;;-1.20;99.90;;;;;;5065732;28;19921;-71
2022/01/14 01:34:47;;;;;;;;;;;-1.20;99.90;;;;;;5065187;28;19925;-71
2022/01/14 01:37:15;;;;;;;;;;;-1.20;99.90;;;;;;5065328;28;19927;-71
2022/01/14 01:39:42;;;;;;;;;;;-1.20;99.90;;;;;;5065533;28;20143;-71
2022/01/14 01:42:09;;;;;;;;;;;-1.20;99.90;;;;;;5065190;28;20234;-72
2022/01/14 01:44:37;;;;;;;;;;;-1.20;99.90;;;;;;5064921;28;19925;-71
2022/01/14 01:47:05;;;;;;;;;;;-1.20;99.90;;;;;;5065165;28;19963;-71
2022/01/14 01:49:32;;;;;;;;;;;-1.20;99.90;;;;;;5065061;28;19921;-70
2022/01/14 01:51:59;;;;;;;;;;;-1.30;99.90;;;;;;5065174;28;19928;-71
2022/01/14 01:54:27;;;;;;;;;;;-1.30;99.90;;;;;;5064808;28;19927;-71
2022/01/14 01:56:54;;;;;;;;;;;-1.40;99.90;;;;;;5065023;28;19925;-71
2022/01/14 01:59:22;;;;;;;;;;;-1.40;99.90;;;;;;5064984;28;19927;-71
2022/01/14 02:02:00;;;;;;;;;;;-1.40;99.90;;;;;;5063858;28;20212;-71
2022/01/14 02:04:27;;;;;;;;;;;-1.40;99.90;;;;;;5064500;28;19921;-70
2022/01/14 02:06:54;;;;;;;;;;;-1.40;99.90;;;;;;5064416;28;19980;-70
2022/01/14 02:09:22;;;;;;;;;;;-1.40;99.90;;;;;;5064352;28;19920;-71
2022/01/14 02:11:50;;;;;;;;;;;-1.40;99.90;;;;;;5064932;28;19927;-71
2022/01/14 02:14:28;;;;;;;;;;;-1.40;99.90;;;;;;5064458;28;19963;-71
2022/01/14 02:17:16;;;;;;;;;;;-1.40;99.90;;;;;;5064719;28;19984;-71
2022/01/14 02:22:09;;;;;;;;;;;-1.40;99.90;;;;;;5064091;28;19921;-71
2022/01/14 02:22:45;;;;;;;;;;;-1.40;99.90;;;;;;5064278;28;19986;-71
2022/01/14 02:25:12;;;;;;;;;;;-1.40;99.90;;;;;;5064293;28;19917;-71
2022/01/14 02:27:39;;;;;;;;;;;-1.40;99.90;;;;;;5064229;28;19920;-70
2022/01/14 02:30:06;;;;;;;;;;;-1.40;99.90;;;;;;5064504;28;19921;-71
2022/01/14 02:32:32;;;;;;;;;;;-1.40;99.90;;;;;;5064605;28;19928;-71
2022/01/14 02:35:00;;;;;;;;;;;-1.40;99.90;;;;;;5064074;28;19952;-71
2022/01/14 02:37:27;;;;;;;;;;;-1.40;99.90;;;;;;5064371;28;19927;-71
2022/01/14 02:39:54;;;;;;;;;;;-1.40;99.90;;;;;;5044103;28;19921;-71
2022/01/14 02:42:20;;;;;;;;;;;-1.40;99.90;;;;;;5044047;28;20212;-71
2022/01/14 02:44:48;;;;;;;;;;;-1.30;99.90;;;;;;5044088;28;19921;-71
2022/01/14 02:47:17;;;;;;;;;;;-1.30;99.90;;;;;;5059516;28;20143;-71
2022/01/14 02:49:44;;;;;;;;;;;-1.30;99.90;;;;;;5063954;28;19921;-71
2022/01/14 02:52:13;;;;;;;;;;;-1.30;99.90;;;;;;5064169;28;20116;-71
2022/01/14 02:54:51;;;;;;;;;;;-1.40;99.90;;;;;;5063882;28;19921;-71
2022/01/14 02:57:19;;;;;;;;;;;-1.30;99.90;;;;;;5063859;28;19921;-71
2022/01/14 02:59:46;;;;;;;;;;;-1.40;99.90;;;;;;5063807;28;19928;-71
2022/01/14 03:02:26;;;;;;;;;;;-1.40;99.90;;;;;;5063057;28;19924;-71
2022/01/14 03:04:53;;;;;;;;;;;-1.40;99.90;;;;;;5063641;28;19920;-71
2022/01/14 03:07:21;;;;;;;;;;;-1.40;99.90;;;;;;5063589;28;20116;-71
2022/01/14 03:09:47;;;;;;;;;;;-1.40;99.90;;;;;;5063865;28;20131;-71
2022/01/14 03:12:14;;;;;;;;;;;-1.30;99.90;;;;;;5063918;28;19950;-71
2022/01/14 03:14:40;;;;;;;;;;;-1.30;99.90;;;;;;5063535;28;19928;-71
2022/01/14 03:17:07;;;;;;;;;;;-1.30;99.90;;;;;;5063787;28;19921;-71
2022/01/14 03:19:33;;;;;;;;;;;-1.30;99.90;;;;;;5063214;28;20204;-71
2022/01/14 03:22:17;;;;;;;;;;;-1.40;99.90;;;;;;5063900;28;19988;-71
2022/01/14 03:27:29;;;;;;;;;;;-1.30;99.90;;;;;;5063542;28;19963;-71
2022/01/14 03:29:56;;;;;;;;;;;-1.40;99.90;;;;;;5063461;28;20212;-70
2022/01/14 03:32:23;;;;;;;;;;;-1.40;99.90;;;;;;5067596;28;20208;-71
2022/01/14 03:34:49;;;;;;;;;;;-1.40;99.90;;;;;;5067427;28;19925;-71
2022/01/14 03:37:16;;;;;;;;;;;-1.40;99.90;;;;;;5067415;28;20120;-71
2022/01/14 03:39:42;;;;;;;;;;;-1.40;99.90;;;;;;5067401;28;19927;-71
2022/01/14 03:42:10;;;;;;;;;;;-1.40;99.90;;;;;;5067745;28;19921;-70
2022/01/14 03:44:37;;;;;;;;;;;-1.40;99.90;;;;;;5067293;28;19921;-71
2022/01/14 03:47:04;;;;;;;;;;;-1.40;99.90;;;;;;5067534;28;19953;-71
2022/01/14 03:49:30;;;;;;;;;;;-1.40;99.90;;;;;;5067249;28;19920;-71
2022/01/14 03:51:57;;;;;;;;;;;-1.40;99.90;;;;;;5067401;28;19925;-71
2022/01/14 03:54:24;;;;;;;;;;;-1.40;99.90;;;;;;5067123;28;19920;-71
2022/01/14 03:56:50;;;;;;;;;;;-1.40;99.90;;;;;;5067267;28;19921;-71
2022/01/14 03:59:18;;;;;;;;;;;-1.50;99.90;;;;;;5067445;28;19925;-71
2022/01/14 04:01:48;;;;;;;;;;;-1.50;99.90;;;;;;5066788;28;19926;-71
2022/01/14 04:04:14;;;;;;;;;;;-1.50;99.90;;;;;;5066928;28;19927;-71
2022/01/14 04:06:41;;;;;;;;;;;-1.60;99.90;;;;;;5067068;28;19921;-70
2022/01/14 04:09:08;;;;;;;;;;;-1.60;99.90;;;;;;5067212;28;19928;-71
2022/01/14 04:11:34;;;;;;;;;;;-1.60;99.90;;;;;;5067113;28;19985;-70
2022/01/14 04:15:36;;;;;;;;;;;-1.60;99.90;;;;;;5066873;28;19920;-71
2022/01/14 04:16:56;;;;;;;;;;;-1.60;99.90;;;;;;5066557;28;19928;-71
2022/01/14 04:19:25;;;;;;;;;;;-1.50;99.90;;;;;;5066953;28;19920;-71
2022/01/14 04:21:51;;;;;;;;;;;-1.50;99.90;;;;;;5066632;28;19928;-71
2022/01/14 04:24:18;;;;;;;;;;;-1.60;99.90;;;;;;5066106;28;20239;-71
2022/01/14 04:26:44;;;;;;;;;;;-1.50;99.90;;;;;;5066680;28;19920;-71
2022/01/14 04:29:11;;;;;;;;;;;-1.60;99.90;;;;;;5066764;28;19925;-71
2022/01/14 04:31:37;;;;;;;;;;;-1.50;99.90;;;;;;5066698;28;19927;-71
2022/01/14 04:34:05;;;;;;;;;;;-1.50;99.90;;;;;;5066454;28;19967;-70
2022/01/14 04:36:32;;;;;;;;;;;-1.50;99.90;;;;;;5066637;28;19979;-71
2022/01/14 04:38:59;;;;;;;;;;;-1.50;99.90;;;;;;5066603;28;20139;-71
2022/01/14 04:41:25;;;;;;;;;;;-1.50;99.90;;;;;;5066232;28;19921;-70
2022/01/14 04:43:52;;;;;;;;;;;-1.50;99.90;;;;;;5066032;28;19921;-71
2022/01/14 04:46:59;;;;;;;;;;;-1.50;99.90;;;;;;5066488;28;20127;-71
2022/01/14 04:49:27;;;;;;;;;;;-1.50;99.90;;;;;;5066170;28;19921;-71
2022/01/14 04:51:55;;;;;;;;;;;-1.50;99.90;;;;;;5065962;28;19920;-71
2022/01/14 04:54:22;;;;;;;;;;;-1.50;99.90;;;;;;5066056;28;20152;-71
2022/01/14 04:56:49;;;;;;;;;;;-1.50;99.90;;;;;;5066205;28;19928;-71
2022/01/14 04:59:15;;;;;;;;;;;-1.50;99.90;;;;;;5066215;28;19921;-71
2022/01/14 05:01:54;;;;;;;;;;;-1.40;99.90;;;;;;5065198;28;20124;-70
2022/01/14 05:04:21;;;;;;;;;;;-1.40;99.90;;;;;;5066043;28;19921;-71
2022/01/14 05:06:56;;;;;;;;;;;-1.40;99.90;;;;;;5065788;28;19927;-71
2022/01/14 05:09:29;;;;;;;;;;;-1.30;99.90;;;;;;5066089;28;19927;-71
2022/01/14 05:12:04;;;;;;;;;;;-1.30;99.90;;;;;;5060109;28;19924;-70
2022/01/14 05:14:31;;;;;;;;;;;-1.40;99.90;;;;;;5065811;28;19920;-71
2022/01/14 05:16:57;;;;;;;;;;;-1.40;99.90;;;;;;5065936;28;19920;-71
2022/01/14 05:19:24;;;;;;;;;;;-1.40;99.90;;;;;;5047188;28;19929;-71
2022/01/14 05:21:52;;;;;;;;;;;-1.50;99.90;;;;;;5061850;28;19927;-71
2022/01/14 05:24:18;;;;;;;;;;;-1.50;99.90;;;;;;5053588;28;19921;-71
2022/01/14 05:26:45;;;;;;;;;;;-1.50;99.90;;;;;;5055127;28;19921;-71
2022/01/14 05:29:12;;;;;;;;;;;-1.50;99.90;;;;;;5045676;28;19927;-72
2022/01/14 05:31:45;;;;;;;;;;;-1.50;99.90;;;;;;5045369;28;19929;-72
2022/01/14 05:34:11;;;;;;;;;;;-1.50;99.90;;;;;;5045421;28;19921;-72
2022/01/14 05:36:38;;;;;;;;;;;-1.50;99.90;;;;;;5056292;28;19924;-72
2022/01/14 05:39:06;;;;;;;;;;;-1.60;99.90;;;;;;5065144;28;19920;-72
2022/01/14 05:41:33;;;;;;;;;;;-1.50;99.90;;;;;;5065513;28;19921;-72
2022/01/14 05:43:59;;;;;;;;;;;-1.40;99.90;;;;;;5065055;28;19920;-72
2022/01/14 05:46:26;;;;;;;;;;;-1.50;99.90;;;;;;5065093;28;19921;-72
2022/01/14 05:48:53;;;;;;;;;;;-1.50;99.90;;;;;;5064884;28;19927;-72
2022/01/14 05:51:19;;;;;;;;;;;-1.50;99.90;;;;;;5065319;28;19927;-72
2022/01/14 05:53:46;;;;;;;;;;;-1.50;99.90;;;;;;5064062;28;20155;-72
2022/01/14 05:56:14;;;;;;;;;;;-1.50;99.90;;;;;;5064376;28;19921;-72
2022/01/14 05:58:40;;;;;;;;;;;-1.50;99.90;;;;;;5064865;28;19921;-72
2022/01/14 06:01:07;;;;;;;;;;;-1.60;99.90;;;;;;5065702;28;19920;-72
2022/01/14 06:03:34;;;;;;;;;;;-1.60;99.90;;;;;;5065627;28;19927;-72
2022/01/14 06:06:00;;;;;;;;;;;-1.60;99.90;;;;;;5064609;28;19925;-72
2022/01/14 06:08:27;;;;;;;;;;;-1.60;99.90;;;;;;5064779;28;20155;-72
2022/01/14 06:10:53;;;;;;;;;;;-1.50;99.90;;;;;;5064807;28;19927;-72
2022/01/14 06:13:21;;;;;;;;;;;-1.50;99.90;;;;;;5064943;28;19924;-72
2022/01/14 06:15:48;;;;;;;;;;;-1.60;99.90;;;;;;5064449;28;19920;-75
2022/01/14 06:18:14;;;;;;;;;;;-1.60;99.90;;;;;;5064539;28;19994;-70
2022/01/14 06:20:41;;;;;;;;;;;-1.60;99.90;;;;;;5064653;28;19928;-70
2022/01/14 06:23:07;;;;;;;;;;;-1.60;99.90;;;;;;5064443;28;19927;-71
2022/01/14 06:25:34;;;;;;;;;;;-1.60;99.90;;;;;;5064065;28;19950;-72
2022/01/14 06:28:01;;;;;;;;;;;-1.60;99.90;;;;;;5062776;28;19920;-71
2022/01/14 06:30:29;;;;;;;;;;;-1.70;99.90;;;;;;5063881;28;19921;-71
2022/01/14 06:32:56;;;;;;;;;;;-1.70;99.90;;;;;;5063607;28;19928;-71
2022/01/14 06:35:23;;;;;;;;;;;-1.70;99.90;;;;;;5063413;28;19920;-70
2022/01/14 06:37:50;;;;;;;;;;;-1.90;99.90;;;;;;5061103;28;19924;-72
2022/01/14 06:40:16;;;;;;;;;;;-1.80;99.90;;;;;;5056939;28;19937;-72
2022/01/14 06:42:43;;;;;;;;;;;-1.90;99.90;;;;;;5044313;28;19988;-73
2022/01/14 06:45:10;;;;;;;;;;;-1.90;99.90;;;;;;5043651;28;19921;-73
2022/01/14 06:47:38;;;;;;;;;;;-2.00;99.90;;;;;;5043309;28;20235;-73
2022/01/14 06:50:05;;;;;;;;;;;-2.00;99.90;;;;;;5043716;28;19921;-73
2022/01/14 06:52:32;;;;;;;;;;;-2.10;99.90;;;;;;5043169;28;19921;-73
2022/01/14 06:54:58;;;;;;;;;;;-2.10;99.90;;;;;;5044883;28;19925;-73
2022/01/14 06:57:25;;;;;;;;;;;-2.10;99.90;;;;;;5043279;28;19925;-72
2022/01/14 06:59:52;;;;;;;;;;;-2.00;99.90;;;;;;5063313;28;19920;-73
2022/01/14 07:02:18;;;;;;;;;;;-2.00;99.90;;;;;;5047773;28;19921;-73
2022/01/14 07:04:46;;;;;;;;;;;-2.00;99.90;;;;;;5042886;28;20229;-73
2022/01/14 07:07:13;;;;;;;;;;;-2.00;99.90;;;;;;5048403;28;20149;-73
2022/01/14 07:09:55;;;;;;;;;;;-1.90;99.90;;;;;;5061981;28;19921;-73
2022/01/14 07:12:23;;;;;;;;;;;-1.90;99.90;;;;;;5062566;28;19956;-73
2022/01/14 07:14:49;;;;;;;;;;;-1.90;99.90;;;;;;5045537;28;19983;-72
2022/01/14 07:17:16;;;;;;;;;;;-1.90;99.90;;;;;;5043216;28;20116;-72
2022/01/14 07:19:43;;;;;;;;;;;-1.80;99.90;;;;;;5043540;28;19936;-72
2022/01/14 07:22:11;;;;;;;;;;;-1.80;99.90;;;;;;5043323;28;19921;-73
2022/01/14 07:24:37;;;;;;;;;;;-1.80;99.90;;;;;;5048493;28;19924;-72
2022/01/14 07:27:04;;;;;;;;;;;-1.80;99.90;;;;;;5062684;28;20174;-73
2022/01/14 07:29:31;;;;;;;;;;;-1.80;99.90;;;;;;5062291;28;19983;-72
2022/01/14 07:31:58;;;;;;;;;;;-1.80;99.90;;;;;;5062204;28;19959;-72
2022/01/14 07:34:25;;;;;;;;;;;-1.80;99.90;;;;;;5062521;28;19956;-72
2022/01/14 07:36:51;;;;;;;;;;;-1.80;99.90;;;;;;5053332;28;20221;-73
2022/01/14 07:39:19;;;;;;;;;;;-1.70;99.90;;;;;;5043046;28;19944;-72
2022/01/14 07:41:46;;;;;;;;;;;-1.70;99.90;;;;;;5045628;28;19929;-73
2022/01/14 07:44:12;;;;;;;;;;;-1.70;99.90;;;;;;5062553;28;19921;-72
2022/01/14 07:46:39;;;;;;;;;;;-1.70;99.90;;;;;;5062585;28;19921;-72
2022/01/14 07:49:06;;;;;;;;;;;-1.70;99.90;;;;;;5062700;28;19927;-72
2022/01/14 07:51:32;;;;;;;;;;;-1.70;99.90;;;;;;5062019;28;19921;-72
2022/01/14 07:54:04;;;;;;;;;;;-1.60;99.90;;;;;;5062568;28;20208;-73
2022/01/14 07:56:33;;;;;;;;;;;-1.60;99.90;;;;;;5062887;28;19928;-73
2022/01/14 07:59:15;;;;;;;;;;;-1.60;99.90;;;;;;5062473;28;19921;-72
2022/01/14 08:01:43;;;;;;;;;;;-1.60;99.90;;;;;;5053882;28;19921;-72
2022/01/14 08:04:09;;;;;;;;;;;-1.60;99.90;;;;;;5042961;28;20217;-72
2022/01/14 08:06:43;;;;;;;;;;;-1.60;99.90;;;;;;5044476;28;19985;-72
2022/01/14 08:09:17;;;;;;;;;;;-1.50;99.90;;;;;;5059349;28;19920;-73
2022/01/14 08:11:46;;;;;;;;;;;-1.50;99.90;;;;;;5053863;28;20219;-71
2022/01/14 08:14:13;;;;;;;;;;;-1.50;99.90;;;;;;5057116;28;19929;-72
2022/01/14 08:16:40;;;;;;;;;;;-1.40;99.90;;;;;;5049205;28;19937;-72
2022/01/14 08:19:21;;;;;;;;;;;-1.40;99.90;;;;;;5046769;28;19921;-72
2022/01/14 08:21:48;;;;;;;;;;;-1.40;99.90;;;;;;5047072;28;19928;-72
2022/01/14 08:24:14;;;;;;;;;;;-1.30;99.90;;;;;;5048835;28;19921;-70
2022/01/14 08:26:41;;;;;;;;;;;-1.30;99.90;;;;;;5066686;28;19988;-71
2022/01/14 08:29:09;;;;;;;;;;;-1.30;99.90;;;;;;5066492;28;19936;-71
2022/01/14 08:31:35;;;;;;;;;;;-1.30;99.90;;;;;;5066853;28;19936;-71
2022/01/14 08:34:02;;;;;;;;;;;-1.30;99.90;;;;;;5066248;28;19927;-72
2022/01/14 08:36:30;;;;;;;;;;;-1.30;99.90;;;;;;5066610;28;19921;-72
2022/01/14 08:38:59;;;;;;;;;;;-1.20;99.90;;;;;;5066785;28;19943;-71
2022/01/14 08:41:29;;;;;;;;;;;-1.20;99.90;;;;;;5066751;28;19927;-72
2022/01/14 08:43:57;;;;;;;;;;;-1.20;99.90;;;;;;5066364;28;19921;-72
2022/01/14 08:46:26;;;;;;;;;;;-1.20;99.90;;;;;;5066541;28;19927;-71
2022/01/14 08:48:52;;;;;;;;;;;-1.10;99.90;;;;;;5066528;28;19956;-71
2022/01/14 08:51:19;;;;;;;;;;;-1.10;99.90;;;;;;5066421;28;19921;-72
2022/01/14 08:53:45;;;;;;;;;;;-1.00;99.90;;;;;;5066313;28;19921;-72
2022/01/14 08:56:12;;;;;;;;;;;-1.00;99.90;;;;;;5065994;28;19920;-71
2022/01/14 08:58:39;;;;;;;;;;;-0.90;99.90;;;;;;5065976;28;19920;-71
2022/01/14 09:01:06;;;;;;;;;;;-0.90;99.90;;;;;;5066438;28;19967;-71
2022/01/14 09:03:33;;;;;;;;;;;-0.90;99.90;;;;;;5065920;28;20160;-72
2022/01/14 09:06:00;;;;;;;;;;;-0.80;99.90;;;;;;5065607;28;19920;-71
2022/01/14 09:08:27;;;;;;;;;;;-0.70;99.90;;;;;;5066088;28;19927;-71
2022/01/14 09:10:53;;;;;;;;;;;-0.70;99.90;;;;;;5065449;28;19921;-71
2022/01/14 09:13:20;;;;;;;;;;;-0.60;99.90;;;;;;5065921;28;19921;-71
2022/01/14 09:15:47;;;;;;;;;;;-0.60;99.90;;;;;;5065623;28;19921;-71
2022/01/14 09:18:13;;;;;;;;;;;-0.50;99.90;;;;;;5065881;28;19943;-72
2022/01/14 09:20:41;;;;;;;;;;;-0.50;99.90;;;;;;5065997;28;19920;-71
2022/01/14 09:23:13;;;;;;;;;;;-0.50;99.90;;;;;;5065548;28;19921;-71
2022/01/14 09:25:39;;;;;;;;;;;-0.40;99.90;;;;;;5064903;28;19948;-72
2022/01/14 09:28:06;;;;;;;;;;;-0.30;99.90;;;;;;5064596;28;19925;-70
2022/01/14 09:30:33;;;;;;;;;;;-0.20;99.90;;;;;;5066253;28;19988;-71
2022/01/14 09:32:59;;;;;;;;;;;-0.10;99.90;;;;;;5065258;28;20105;-72
2022/01/14 09:35:26;;;;;;;;;;;0.20;99.90;;;;;;5065455;28;19920;-71
2022/01/14 09:37:54;;;;;;;;;;;0.30;99.90;;;;;;5065527;28;19921;-71
2022/01/14 09:40:20;;;;;;;;;;;0.50;99.90;;;;;;5065035;28;19992;-72
2022/01/14 09:42:48;;;;;;;;;;;0.60;99.90;;;;;;5065479;28;19920;-71
2022/01/14 09:45:15;;;;;;;;;;;0.80;99.90;;;;;;5064826;28;19962;-72
2022/01/14 09:47:42;;;;;;;;;;;0.90;99.90;;;;;;5065247;28;19920;-71
2022/01/14 09:50:09;;;;;;;;;;;1.00;99.90;;;;;;5065383;28;19921;-71
2022/01/14 09:52:36;;;;;;;;;;;1.20;99.90;;;;;;5065254;28;19927;-71
2022/01/14 09:55:05;;;;;;;;;;;1.30;99.90;;;;;;5065015;28;19924;-71
2022/01/14 09:57:31;;;;;;;;;;;1.50;99.90;;;;;;5064895;28;19927;-72
2022/01/14 09:59:58;;;;;;;;;;;1.60;99.90;;;;;;5064859;28;19921;-71
2022/01/14 10:02:31;;;;;;;;;;;1.60;99.90;;;;;;5064792;28;19924;-72
2022/01/14 10:04:58;;;;;;;;;;;1.70;99.90;;;;;;5064887;28;20259;-72
2022/01/14 10:07:25;;;;;;;;;;;1.80;99.90;;;;;;5064731;28;19921;-72
2022/01/14 10:09:56;;;;;;;;;;;1.90;99.90;;;;;;5064376;28;20266;-71
2022/01/14 10:12:25;;;;;;;;;;;2.00;99.90;;;;;;5064845;28;19963;-72
2022/01/14 10:14:56;;;;;;;;;;;2.10;99.90;;;;;;5064454;28;19921;-72
2022/01/14 10:17:23;;;;;;;;;;;2.20;99.90;;;;;;5064520;28;19921;-72
2022/01/14 10:19:50;;;;;;;;;;;2.40;99.90;;;;;;5064790;28;19921;-72
2022/01/14 10:22:21;;;;;;;;;;;2.50;99.90;;;;;;5064436;28;19925;-72
2022/01/14 10:24:55;;;;;;;;;;;2.70;99.90;;;;;;5064405;28;19955;-71
2022/01/14 10:27:31;;;;;;;;;;;2.80;99.90;;;;;;5064529;28;19955;-72
2022/01/14 10:30:06;;;;;;;;;;;2.90;99.90;;;;;;5064680;28;20027;-72
2022/01/14 10:32:34;;;;;;;;;;;3.10;99.90;;;;;;5064724;28;19920;-72
2022/01/14 10:35:03;;;;;;;;;;;3.20;99.90;;;;;;5064097;28;20208;-72
2022/01/14 10:37:33;;;;;;;;;;;3.40;99.90;;;;;;5064125;28;20240;-72
2022/01/14 10:40:00;;;;;;;;;;;3.50;99.90;;;;;;5064161;28;19921;-72
2022/01/14 10:42:28;;;;;;;;;;;3.60;99.90;;;;;;5064226;28;19927;-72
2022/01/14 10:45:13;;;;;;;;;;;3.70;99.90;;;;;;5064216;28;19925;-72
2022/01/14 10:47:40;;;;;;;;;;;3.90;99.90;;;;;;5064289;28;19963;-72
2022/01/14 10:50:07;;;;;;;;;;;4.10;99.90;;;;;;5064115;28;19921;-72
2022/01/14 10:52:33;;;;;;;;;;;4.20;99.90;;;;;;5064254;28;19927;-71
2022/01/14 10:55:00;;;;;;;;;;;4.40;99.90;;;;;;5063935;28;19921;-72
2022/01/14 10:57:27;;;;;;;;;;;4.50;99.90;;;;;;5063985;28;19920;-72
2022/01/14 10:59:55;;;;;;;;;;;4.60;99.90;;;;;;5064177;28;19921;-72
2022/01/14 11:02:32;;;;;;;;;;;4.80;99.90;;;;;;5064246;28;19921;-72
2022/01/14 11:05:06;;;;;;;;;;;5.00;99.90;;;;;;5063918;28;19920;-72
2022/01/14 11:07:32;;;;;;;;;;;5.20;99.90;;;;;;5063553;28;20112;-72
2022/01/14 11:09:59;;;;;;;;;;;5.20;99.90;;;;;;5063633;28;20216;-71
2022/01/14 11:12:26;;;;;;;;;;;5.40;99.90;;;;;;5063929;28;19927;-71
2022/01/14 11:14:52;;;;;;;;;;;5.60;99.90;;;;;;5063337;28;19920;-72
2022/01/14 11:17:19;;;;;;;;;;;5.70;99.90;;;;;;5063837;28;19920;-71
2022/01/14 11:19:47;;;;;;;;;;;5.80;99.90;;;;;;5063475;28;19921;-71
2022/01/14 11:24:58;;;;;;;;;;;6.20;99.90;;;;;;5062003;28;19924;-72
2022/01/14 11:27:27;;;;;;;;;;;6.30;99.90;;;;;;5062785;28;20278;-71
2022/01/14 11:29:58;;;;;;;;;;;6.40;99.90;;;;;;5062840;28;19932;-72
2022/01/14 11:32:24;;;;;;;;;;;6.40;99.90;;;;;;5063579;28;20157;-71
2022/01/14 11:34:52;;;;;;;;;;;6.50;99.90;;;;;;5063243;28;20097;-71
2022/01/14 11:37:31;;;;;;;;;;;6.60;99.90;;;;;;5061037;28;19925;-73
2022/01/14 11:39:59;;;;;;;;;;;6.60;99.90;;;;;;5061200;28;19921;-71
2022/01/14 11:42:39;;;;;;;;;;;6.80;99.90;;;;;;5062970;28;19929;-72
2022/01/14 11:45:06;;;;;;;;;;;6.80;99.90;;;;;;5061991;28;19925;-71
2022/01/14 11:47:49;;;;;;;;;;;7.00;99.90;;;;;;5062327;28;20208;-70
2022/01/14 11:50:34;;;;;;;;;;;7.10;99.90;;;;;;5063109;28;20145;-74
2022/01/14 11:53:02;;;;;;;;;;;7.20;99.90;;;;;;5064868;28;19921;-71
2022/01/14 11:55:36;;;;;;;;;;;7.40;99.90;;;;;;5066762;28;19927;-70
2022/01/14 11:58:03;;;;;;;;;;;7.30;99.90;;;;;;5067306;28;19921;-73
2022/01/14 12:00:37;;;;;;;;;;;7.40;99.90;;;;;;5066913;28;19943;-74
2022/01/14 12:03:33;;;;;;;;;;;7.40;99.90;;;;;;5066654;28;19920;-74
2022/01/14 12:06:02;;;;;;;;;;;7.30;99.90;;;;;;5067099;28;19920;-73
2022/01/14 12:08:30;;;;;;;;;;;7.30;99.90;;;;;;5055256;28;19921;-74
2022/01/14 12:10:58;;;;;;;;;;;7.30;99.90;;;;;;5067024;28;19921;-70
2022/01/14 12:13:40;;;;;;;;;;;7.50;99.90;;;;;;5067070;28;19927;-74
2022/01/14 12:16:08;;;;;;;;;;;7.50;99.90;;;;;;5066613;28;19956;-70
2022/01/14 12:18:54;;;;;;;;;;;7.60;99.90;;;;;;5066104;28;19980;-71
2022/01/14 12:21:40;;;;;;;;;;;7.70;99.90;;;;;;5066389;28;19924;-74
2022/01/14 12:24:22;;;;;;;;;;;7.80;99.90;;;;;;5065680;28;19927;-70
2022/01/14 12:27:16;;;;;;;;;;;8.00;99.90;;;;;;5065835;28;19928;-73
2022/01/14 12:29:44;;;;;;;;;;;8.10;99.90;;;;;;5066650;28;19921;-71
2022/01/14 12:32:12;;;;;;;;;;;8.10;99.90;;;;;;5066113;28;20268;-72
2022/01/14 12:34:40;;;;;;;;;;;8.10;99.90;;;;;;5065963;28;19921;-72
2022/01/14 12:37:08;;;;;;;;;;;8.10;99.90;;;;;;5066472;28;19921;-71
2022/01/14 12:39:35;;;;;;;;;;;8.10;99.90;;;;;;5066185;28;19944;-72
2022/01/14 12:42:03;;;;;;;;;;;8.10;99.90;;;;;;5066033;28;19921;-72
2022/01/14 12:44:30;;;;;;;;;;;8.10;99.90;;;;;;5065630;28;19921;-72
2022/01/14 12:46:59;;;;;;;;;;;8.20;99.90;;;;;;5065858;28;19928;-71
2022/01/14 12:49:26;;;;;;;;;;;8.30;99.90;;;;;;5065779;28;19920;-71
2022/01/14 12:51:59;;;;;;;;;;;8.30;99.90;;;;;;5065719;28;19927;-72
2022/01/14 12:54:29;;;;;;;;;;;8.40;99.90;;;;;;5063532;28;19928;-71
2022/01/14 12:56:57;;;;;;;;;;;8.40;99.90;;;;;;5056440;28;20116;-71
2022/01/14 12:59:25;;;;;;;;;;;8.50;99.90;;;;;;5057377;28;19921;-71
2022/01/14 13:01:56;;;;;;;;;;;8.50;99.90;;;;;;5056854;28;20209;-71
2022/01/14 13:04:24;;;;;;;;;;;8.60;99.90;;;;;;5049449;28;20223;-72
2022/01/14 13:06:51;;;;;;;;;;;8.60;99.90;;;;;;5054445;28;20110;-72
2022/01/14 13:09:20;;;;;;;;;;;8.50;99.90;;;;;;5046894;28;19928;-72
2022/01/14 13:11:55;;;;;;;;;;;8.50;99.90;;;;;;5062653;28;19921;-72
2022/01/14 13:14:31;;;;;;;;;;;8.40;99.90;;;;;;5045813;28;20262;-73
2022/01/14 13:17:00;;;;;;;;;;;8.50;99.90;;;;;;5048392;28;19983;-72
2022/01/14 13:19:28;;;;;;;;;;;8.60;99.90;;;;;;5064801;28;19960;-71
2022/01/14 13:21:54;;;;;;;;;;;8.70;99.90;;;;;;5051736;28;19925;-72
2022/01/14 13:24:22;;;;;;;;;;;8.70;99.90;;;;;;5055747;28;19924;-72
2022/01/14 13:27:26;;;;;;;;;;;8.70;99.90;;;;;;5056752;28;20132;-73
2022/01/14 13:29:55;;;;;;;;;;;8.70;99.90;;;;;;5052507;28;19921;-72
2022/01/14 13:32:22;;;;;;;;;;;8.80;99.90;;;;;;5065206;28;19968;-72
2022/01/14 13:34:49;;;;;;;;;;;8.90;99.90;;;;;;5065175;28;19927;-72
2022/01/14 13:37:17;;;;;;;;;;;8.90;99.90;;;;;;5056661;28;19928;-72
2022/01/14 13:39:43;;;;;;;;;;;8.90;99.90;;;;;;5045578;28;19927;-72
2022/01/14 13:42:22;;;;;;;;;;;8.80;99.90;;;;;;5045382;28;20264;-72
2022/01/14 13:44:48;;;;;;;;;;;8.80;99.90;;;;;;5052929;28;19979;-74
2022/01/14 13:47:21;;;;;;;;;;;8.80;99.90;;;;;;5055082;28;19920;-72
2022/01/14 13:49:47;;;;;;;;;;;8.80;99.90;;;;;;5045244;28;19921;-73
2022/01/14 13:52:14;;;;;;;;;;;8.70;99.90;;;;;;5058957;28;19927;-71
2022/01/14 13:54:41;;;;;;;;;;;8.50;99.90;;;;;;5064779;28;19959;-71
2022/01/14 13:57:09;;;;;;;;;;;8.40;99.90;;;;;;5064525;28;20119;-71
2022/01/14 13:59:36;;;;;;;;;;;8.20;99.90;;;;;;5064713;28;19921;-72
2022/01/14 14:02:05;;;;;;;;;;;8.00;99.90;;;;;;5045081;28;19921;-73
2022/01/14 14:04:40;;;;;;;;;;;7.70;99.90;;;;;;5044432;28;19984;-72
2022/01/14 14:07:09;;;;;;;;;;;7.50;99.90;;;;;;5044665;28;19943;-71
2022/01/14 14:09:44;;;;;;;;;;;7.40;99.90;;;;;;5044298;28;20199;-71
2022/01/14 14:12:37;;;;;;;;;;;7.20;99.90;;;;;;5045007;28;19928;-71
2022/01/14 14:17:59;;;;;;;;;;;7.00;99.90;;;;;;5051856;28;19939;-71
2022/01/14 14:20:27;;;;;;;;;;;7.00;99.90;;;;;;5063360;28;19920;-74
2022/01/14 14:22:54;;;;;;;;;;;6.90;99.90;;;;;;5064388;28;19920;-71
2022/01/14 14:25:25;;;;;;;;;;;6.90;99.90;;;;;;5051687;28;19925;-72
2022/01/14 14:27:55;;;;;;;;;;;6.80;99.90;;;;;;5044487;28;19921;-71
2022/01/14 14:30:21;;;;;;;;;;;6.70;99.90;;;;;;5043573;28;19925;-74
2022/01/14 14:32:48;;;;;;;;;;;6.70;99.90;;;;;;5042979;28;19921;-75
2022/01/14 14:35:16;;;;;;;;;;;6.60;99.90;;;;;;5043541;28;20197;-74
2022/01/14 14:37:48;;;;;;;;;;;6.60;99.90;;;;;;5057225;28;19928;-71
2022/01/14 14:40:18;;;;;;;;;;;6.60;99.90;;;;;;5051291;28;20023;-73
2022/01/14 14:42:47;;;;;;;;;;;6.60;99.90;;;;;;5043463;28;19928;-74
2022/01/14 14:45:14;;;;;;;;;;;6.60;99.90;;;;;;5043635;28;19921;-74
2022/01/14 14:47:40;;;;;;;;;;;6.60;99.90;;;;;;5043904;28;20041;-71